createdAt,value
2019-02-21T00:00:21.000Z,101189
2019-02-21T00:01:51.000Z,101188
2019-02-21T00:02:51.000Z,101183
2019-02-21T00:04:51.000Z,101188
2019-02-21T00:06:51.000Z,101188
2019-02-21T00:08:51.000Z,101184
2019-02-21T00:09:51.000Z,101192
2019-02-21T00:10:51.000Z,101192
2019-02-21T00:12:36.000Z,101183
2019-02-21T00:14:51.000Z,101183
2019-02-21T00:16:51.000Z,101184
2019-02-21T00:17:51.000Z,101188
2019-02-21T00:19:36.000Z,101196
2019-02-21T00:20:51.000Z,101189
2019-02-21T00:21:51.000Z,101197
2019-02-21T00:23:36.000Z,101195
2019-02-21T00:24:51.000Z,101205
2019-02-21T00:26:36.000Z,101197
2019-02-21T00:28:51.000Z,101210
2019-02-21T00:30:51.000Z,101209
2019-02-21T00:32:51.000Z,101203
2019-02-21T00:34:51.000Z,101205
2019-02-21T00:36:51.000Z,101200
2019-02-21T00:38:51.000Z,101196
2019-02-21T00:40:51.000Z,101198
2019-02-21T00:41:51.000Z,101202
2019-02-21T00:43:51.000Z,101201
2019-02-21T00:45:51.000Z,101200
2019-02-21T00:46:51.000Z,101200
2019-02-21T00:48:51.000Z,101201
2019-02-21T00:49:51.000Z,101202
2019-02-21T00:51:51.000Z,101195
2019-02-21T00:52:51.000Z,101190
2019-02-21T00:54:50.000Z,101186
2019-02-21T00:55:50.000Z,101186
2019-02-21T00:57:50.000Z,101186
2019-02-21T00:58:50.000Z,101187
2019-02-21T00:59:50.000Z,101192
2019-02-21T01:01:35.000Z,101191
2019-02-21T01:02:50.000Z,101195
2019-02-21T01:03:50.000Z,101190
2019-02-21T01:04:50.000Z,101194
2019-02-21T01:06:50.000Z,101192
2019-02-21T01:08:50.000Z,101194
2019-02-21T01:10:50.000Z,101193
2019-02-21T01:12:50.000Z,101192
2019-02-21T01:13:50.000Z,101190
2019-02-21T01:15:50.000Z,101193
2019-02-21T01:16:50.000Z,101193
2019-02-21T01:18:50.000Z,101199
2019-02-21T01:20:35.000Z,101200
2019-02-21T01:21:50.000Z,101206
2019-02-21T01:23:50.000Z,101207
2019-02-21T01:24:50.000Z,101204
2019-02-21T01:26:50.000Z,101203
2019-02-21T01:28:50.000Z,101205
2019-02-21T01:30:50.000Z,101210
2019-02-21T01:32:50.000Z,101210
2019-02-21T01:33:50.000Z,101212
2019-02-21T01:35:35.000Z,101209
2019-02-21T01:36:50.000Z,101206
2019-02-21T01:37:50.000Z,101208
2019-02-21T01:39:50.000Z,101201
2019-02-21T01:41:50.000Z,101198
2019-02-21T01:43:50.000Z,101198
2019-02-21T01:45:50.000Z,101197
2019-02-21T01:46:50.000Z,101193
2019-02-21T01:48:35.000Z,101193
2019-02-21T01:49:50.000Z,101198
2019-02-21T01:51:50.000Z,101201
2019-02-21T01:53:50.000Z,101199
2019-02-21T01:55:35.000Z,101201
2019-02-21T01:56:50.000Z,101198
2019-02-21T01:58:51.000Z,101199
2019-02-21T02:00:51.000Z,101190
2019-02-21T02:02:51.000Z,101197
2019-02-21T02:03:51.000Z,101199
2019-02-21T02:04:51.000Z,101202
2019-02-21T02:05:51.000Z,101199
2019-02-21T02:07:51.000Z,101198
2019-02-21T02:09:36.000Z,101198
2019-02-21T02:10:51.000Z,101198
2019-02-21T02:11:51.000Z,101205
2019-02-21T02:13:21.000Z,101190
2019-02-21T02:14:51.000Z,101209
2019-02-21T02:15:51.000Z,101208
2019-02-21T02:17:51.000Z,101204
2019-02-21T02:19:51.000Z,101211
2019-02-21T02:21:51.000Z,101214
2019-02-21T02:23:51.000Z,101209
2019-02-21T02:24:51.000Z,101216
2019-02-21T02:26:51.000Z,101214
2019-02-21T02:27:51.000Z,101219
2019-02-21T02:29:51.000Z,101225
2019-02-21T02:31:21.000Z,101216
2019-02-21T02:32:51.000Z,101216
2019-02-21T02:34:51.000Z,101224
2019-02-21T02:35:51.000Z,101228
2019-02-21T02:37:51.000Z,101227
2019-02-21T02:39:51.000Z,101222
2019-02-21T02:41:51.000Z,101219
2019-02-21T02:43:36.000Z,101219
2019-02-21T02:44:51.000Z,101219
2019-02-21T02:45:51.000Z,101224
2019-02-21T02:47:51.000Z,101218
2019-02-21T02:48:51.000Z,101224
2019-02-21T02:50:51.000Z,101227
2019-02-21T02:52:51.000Z,101222
2019-02-21T02:54:51.000Z,101225
2019-02-21T02:56:51.000Z,101225
2019-02-21T02:58:36.000Z,101222
2019-02-21T02:59:36.000Z,101224
2019-02-21T03:01:51.000Z,101234
2019-02-21T03:02:51.000Z,101231
2019-02-21T03:03:51.000Z,101231
2019-02-21T03:05:35.000Z,101228
2019-02-21T03:06:51.000Z,101231
2019-02-21T03:07:51.000Z,101233
2019-02-21T03:09:51.000Z,101226
2019-02-21T03:10:51.000Z,101231
2019-02-21T03:12:51.000Z,101231
2019-02-21T03:13:51.000Z,101233
2019-02-21T03:15:51.000Z,101232
2019-02-21T03:16:51.000Z,101230
2019-02-21T03:18:51.000Z,101235
2019-02-21T03:20:51.000Z,101229
2019-02-21T03:22:35.000Z,101227
2019-02-21T03:23:51.000Z,101231
2019-02-21T03:24:51.000Z,101228
2019-02-21T03:25:51.000Z,101230
2019-02-21T03:27:51.000Z,101231
2019-02-21T03:29:51.000Z,101230
2019-02-21T03:30:51.000Z,101233
2019-02-21T03:32:51.000Z,101232
2019-02-21T03:34:51.000Z,101229
2019-02-21T03:35:51.000Z,101233
2019-02-21T03:37:51.000Z,101236
2019-02-21T03:39:51.000Z,101229
2019-02-21T03:41:51.000Z,101232
2019-02-21T03:43:36.000Z,101232
2019-02-21T03:44:51.000Z,101228
2019-02-21T03:46:51.000Z,101231
2019-02-21T03:48:51.000Z,101232
2019-02-21T03:49:51.000Z,101235
2019-02-21T03:50:51.000Z,101230
2019-02-21T03:52:51.000Z,101232
2019-02-21T03:54:51.000Z,101225
2019-02-21T03:56:51.000Z,101233
2019-02-21T03:58:51.000Z,101227
2019-02-21T04:00:51.000Z,101232
2019-02-21T04:02:51.000Z,101233
2019-02-21T04:04:51.000Z,101235
2019-02-21T04:06:51.000Z,101230
2019-02-21T04:08:51.000Z,101235
2019-02-21T04:09:51.000Z,101235
2019-02-21T04:10:51.000Z,101236
2019-02-21T04:12:51.000Z,101232
2019-02-21T04:14:36.000Z,101236
2019-02-21T04:15:51.000Z,101228
2019-02-21T04:17:51.000Z,101225
2019-02-21T04:19:36.000Z,101228
2019-02-21T04:20:51.000Z,101228
2019-02-21T04:22:51.000Z,101230
2019-02-21T04:23:51.000Z,101224
2019-02-21T04:25:51.000Z,101214
2019-02-21T04:27:51.000Z,101225
2019-02-21T04:29:51.000Z,101222
2019-02-21T04:30:51.000Z,101228
2019-02-21T04:32:51.000Z,101223
2019-02-21T04:33:51.000Z,101224
2019-02-21T04:35:51.000Z,101221
2019-02-21T04:37:51.000Z,101216
2019-02-21T04:38:51.000Z,101215
2019-02-21T04:40:36.000Z,101215
2019-02-21T04:41:51.000Z,101218
2019-02-21T04:42:51.000Z,101214
2019-02-21T04:44:51.000Z,101210
2019-02-21T04:46:51.000Z,101213
2019-02-21T04:48:51.000Z,101215
2019-02-21T04:50:36.000Z,101219
2019-02-21T04:51:51.000Z,101212
2019-02-21T04:53:36.000Z,101209
2019-02-21T04:54:51.000Z,101213
2019-02-21T04:55:51.000Z,101210
2019-02-21T04:57:51.000Z,101209
2019-02-21T04:59:21.000Z,101209
2019-02-21T05:00:51.000Z,101210
2019-02-21T05:01:51.000Z,101208
2019-02-21T05:03:51.000Z,101208
2019-02-21T05:04:51.000Z,101215
2019-02-21T05:06:51.000Z,101214
2019-02-21T05:08:51.000Z,101211
2019-02-21T05:09:50.000Z,101215
2019-02-21T05:11:50.000Z,101213
2019-02-21T05:13:50.000Z,101212
2019-02-21T05:14:50.000Z,101213
2019-02-21T05:16:35.000Z,101206
2019-02-21T05:17:50.000Z,101203
2019-02-21T05:18:50.000Z,101207
2019-02-21T05:20:50.000Z,101205
2019-02-21T05:22:50.000Z,101208
2019-02-21T05:24:35.000Z,101202
2019-02-21T05:25:50.000Z,101213
2019-02-21T05:27:50.000Z,101206
2019-02-21T05:29:50.000Z,101202
2019-02-21T05:31:50.000Z,101205
2019-02-21T05:33:20.000Z,101202
2019-02-21T05:34:50.000Z,101202
2019-02-21T05:36:20.000Z,101202
2019-02-21T05:37:50.000Z,101209
2019-02-21T05:38:50.000Z,101203
2019-02-21T05:40:50.000Z,101204
2019-02-21T05:42:50.000Z,101203
2019-02-21T05:44:35.000Z,101204
2019-02-21T05:45:50.000Z,101208
2019-02-21T05:47:20.000Z,101210
2019-02-21T05:48:35.000Z,101203
2019-02-21T05:50:50.000Z,101211
2019-02-21T05:52:50.000Z,101209
2019-02-21T05:54:50.000Z,101210
2019-02-21T05:56:35.000Z,101207
2019-02-21T05:57:50.000Z,101208
2019-02-21T05:59:50.000Z,101209
2019-02-21T06:01:35.000Z,101218
2019-02-21T06:02:50.000Z,101220
2019-02-21T06:04:50.000Z,101222
2019-02-21T06:06:50.000Z,101223
2019-02-21T06:07:50.000Z,101227
2019-02-21T06:08:50.000Z,101224
2019-02-21T06:10:50.000Z,101224
2019-02-21T06:12:20.000Z,101221
2019-02-21T06:13:50.000Z,101224
2019-02-21T06:14:50.000Z,101228
2019-02-21T06:16:50.000Z,101230
2019-02-21T06:18:35.000Z,101228
2019-02-21T06:19:50.000Z,101228
2019-02-21T06:21:50.000Z,101227
2019-02-21T06:23:50.000Z,101228
2019-02-21T06:25:50.000Z,101230
2019-02-21T06:27:35.000Z,101224
2019-02-21T06:29:20.000Z,101233
2019-02-21T06:30:50.000Z,101233
2019-02-21T06:32:50.000Z,101242
2019-02-21T06:34:50.000Z,101246
2019-02-21T06:36:50.000Z,101248
2019-02-21T06:38:50.000Z,101249
2019-02-21T06:39:50.000Z,101248
2019-02-21T06:41:35.000Z,101239
2019-02-21T06:42:50.000Z,101239
2019-02-21T06:44:35.000Z,101244
2019-02-21T06:46:50.000Z,101244
2019-02-21T06:47:50.000Z,101244
2019-02-21T06:49:20.000Z,101249
2019-02-21T06:50:26.000Z,101247
2019-02-21T06:51:50.000Z,101255
2019-02-21T06:53:50.000Z,101256
2019-02-21T06:55:50.000Z,101255
2019-02-21T06:56:50.000Z,101251
2019-02-21T06:58:50.000Z,101254
2019-02-21T07:00:50.000Z,101253
2019-02-21T07:02:50.000Z,101264
2019-02-21T07:03:50.000Z,101260
2019-02-21T07:04:50.000Z,101270
2019-02-21T07:06:20.000Z,101259
2019-02-21T07:07:35.000Z,101267
2019-02-21T07:08:50.000Z,101270
2019-02-21T07:10:50.000Z,101269
2019-02-21T07:11:50.000Z,101275
2019-02-21T07:13:20.000Z,101269
2019-02-21T07:14:50.000Z,101274
2019-02-21T07:15:50.000Z,101273
2019-02-21T07:17:35.000Z,101267
2019-02-21T07:18:51.000Z,101269
2019-02-21T07:20:51.000Z,101269
2019-02-21T07:22:21.000Z,101272
2019-02-21T07:23:36.000Z,101279
2019-02-21T07:25:51.000Z,101272
2019-02-21T07:26:51.000Z,101273
2019-02-21T07:28:20.000Z,101273
2019-02-21T07:29:36.000Z,101272
2019-02-21T07:31:21.000Z,101277
2019-02-21T07:32:51.000Z,101280
2019-02-21T07:34:51.000Z,101279
2019-02-21T07:35:51.000Z,101284
2019-02-21T07:37:51.000Z,101282
2019-02-21T07:39:36.000Z,101289
2019-02-21T07:40:51.000Z,101288
2019-02-21T07:42:35.000Z,101289
2019-02-21T07:43:51.000Z,101291
2019-02-21T07:45:36.000Z,101297
2019-02-21T07:47:35.000Z,101295
2019-02-21T07:48:36.000Z,101292
2019-02-21T07:50:20.000Z,101292
2019-02-21T07:51:51.000Z,101291
2019-02-21T07:52:51.000Z,101290
2019-02-21T07:54:51.000Z,101292
2019-02-21T07:56:36.000Z,101292
2019-02-21T07:58:36.000Z,101294
2019-02-21T07:59:51.000Z,101288
2019-02-21T08:00:51.000Z,101294
2019-02-21T08:02:51.000Z,101295
2019-02-21T08:04:36.000Z,101298
2019-02-21T08:06:51.000Z,101304
2019-02-21T08:07:51.000Z,101302
2019-02-21T08:09:51.000Z,101304
2019-02-21T08:11:51.000Z,101303
2019-02-21T08:13:51.000Z,101302
2019-02-21T08:14:51.000Z,101303
2019-02-21T08:15:51.000Z,101306
2019-02-21T08:17:51.000Z,101313
2019-02-21T08:18:51.000Z,101308
2019-02-21T08:20:36.000Z,101309
2019-02-21T08:22:50.000Z,101306
2019-02-21T08:24:50.000Z,101303
2019-02-21T08:26:50.000Z,101316
2019-02-21T08:28:50.000Z,101317
2019-02-21T08:29:50.000Z,101322
2019-02-21T08:31:50.000Z,101325
2019-02-21T08:33:50.000Z,101322
2019-02-21T08:35:50.000Z,101327
2019-02-21T08:37:50.000Z,101325
2019-02-21T08:39:35.000Z,101329
2019-02-21T08:40:50.000Z,101329
2019-02-21T08:42:50.000Z,101323
2019-02-21T08:44:50.000Z,101329
2019-02-21T08:46:50.000Z,101334
2019-02-21T08:48:50.000Z,101336
2019-02-21T08:50:20.000Z,101329
2019-02-21T08:51:50.000Z,101335
2019-02-21T08:52:50.000Z,101331
2019-02-21T08:54:50.000Z,101334
2019-02-21T08:56:50.000Z,101335
2019-02-21T08:58:50.000Z,101337
2019-02-21T09:00:50.000Z,101335
2019-02-21T09:02:50.000Z,101332
2019-02-21T09:04:20.000Z,101325
2019-02-21T09:05:50.000Z,101327
2019-02-21T09:06:50.000Z,101322
2019-02-21T09:08:20.000Z,101325
2019-02-21T09:10:50.000Z,101337
2019-02-21T09:11:50.000Z,101336
2019-02-21T09:13:20.000Z,101335
2019-02-21T09:15:50.000Z,101343
2019-02-21T09:16:50.000Z,101337
2019-02-21T09:18:35.000Z,101333
2019-02-21T09:19:35.000Z,101334
2019-02-21T09:21:50.000Z,101337
2019-02-21T09:23:50.000Z,101343
2019-02-21T09:25:50.000Z,101347
2019-02-21T09:27:50.000Z,101350
2019-02-21T09:28:51.000Z,101349
2019-02-21T09:30:50.000Z,101354
2019-02-21T09:32:50.000Z,101358
2019-02-21T09:34:21.000Z,101354
2019-02-21T09:35:50.000Z,101358
2019-02-21T09:36:50.000Z,101361
2019-02-21T09:38:50.000Z,101355
2019-02-21T09:40:35.000Z,101361
2019-02-21T09:41:50.000Z,101361
2019-02-21T09:42:50.000Z,101367
2019-02-21T09:44:50.000Z,101372
2019-02-21T09:46:50.000Z,101376
2019-02-21T09:48:50.000Z,101366
2019-02-21T09:50:35.000Z,101377
2019-02-21T09:51:36.000Z,101378
2019-02-21T09:53:50.000Z,101379
2019-02-21T09:54:50.000Z,101375
2019-02-21T09:55:50.000Z,101380
2019-02-21T09:57:50.000Z,101374
2019-02-21T09:58:50.000Z,101374
2019-02-21T09:59:50.000Z,101378
2019-02-21T10:01:50.000Z,101370
2019-02-21T10:03:50.000Z,101371
2019-02-21T10:05:50.000Z,101368
2019-02-21T10:06:50.000Z,101380
2019-02-21T10:08:21.000Z,101377
2019-02-21T10:09:50.000Z,101374
2019-02-21T10:11:20.000Z,101372
2019-02-21T10:12:50.000Z,101384
2019-02-21T10:13:50.000Z,101390
2019-02-21T10:15:35.000Z,101384
2019-02-21T10:16:50.000Z,101381
2019-02-21T10:18:50.000Z,101378
2019-02-21T10:20:50.000Z,101383
2019-02-21T10:21:50.000Z,101381
2019-02-21T10:23:35.000Z,101380
2019-02-21T10:24:50.000Z,101383
2019-02-21T10:26:35.000Z,101379
2019-02-21T10:27:50.000Z,101384
2019-02-21T10:29:50.000Z,101389
2019-02-21T10:31:35.000Z,101398
2019-02-21T10:32:51.000Z,101390
2019-02-21T10:34:21.000Z,101388
2019-02-21T10:35:51.000Z,101379
2019-02-21T10:37:51.000Z,101377
2019-02-21T10:39:51.000Z,101375
2019-02-21T10:41:51.000Z,101375
2019-02-21T10:43:51.000Z,101364
2019-02-21T10:45:36.000Z,101368
2019-02-21T10:47:51.000Z,101366
2019-02-21T10:49:51.000Z,101365
2019-02-21T10:50:51.000Z,101365
2019-02-21T10:52:51.000Z,101359
2019-02-21T10:54:51.000Z,101359
2019-02-21T10:56:35.000Z,101352
2019-02-21T10:57:51.000Z,101359
2019-02-21T10:59:36.000Z,101360
2019-02-21T11:01:51.000Z,101352
2019-02-21T11:02:51.000Z,101356
2019-02-21T11:04:51.000Z,101344
2019-02-21T11:06:51.000Z,101348
2019-02-21T11:08:51.000Z,101350
2019-02-21T11:10:51.000Z,101344
2019-02-21T11:12:51.000Z,101349
2019-02-21T11:14:36.000Z,101349
2019-02-21T11:16:51.000Z,101341
2019-02-21T11:18:51.000Z,101353
2019-02-21T11:19:51.000Z,101350
2019-02-21T11:21:51.000Z,101347
2019-02-21T11:23:51.000Z,101344
2019-02-21T11:25:51.000Z,101344
2019-02-21T11:27:51.000Z,101345
2019-02-21T11:29:51.000Z,101341
2019-02-21T11:30:51.000Z,101348
2019-02-21T11:32:51.000Z,101349
2019-02-21T11:34:35.000Z,101337
2019-02-21T11:35:51.000Z,101341
2019-02-21T11:36:51.000Z,101336
2019-02-21T11:38:35.000Z,101338
2019-02-21T11:39:51.000Z,101343
2019-02-21T11:40:51.000Z,101345
2019-02-21T11:42:51.000Z,101345
2019-02-21T11:44:51.000Z,101345
2019-02-21T11:46:51.000Z,101347
2019-02-21T11:48:51.000Z,101345
2019-02-21T11:50:51.000Z,101354
2019-02-21T11:52:51.000Z,101358
2019-02-21T11:54:21.000Z,101356
2019-02-21T11:55:51.000Z,101365
2019-02-21T11:57:51.000Z,101361
2019-02-21T11:58:51.000Z,101360
2019-02-21T12:00:51.000Z,101355
2019-02-21T12:02:36.000Z,101355
2019-02-21T12:04:36.000Z,101351
2019-02-21T12:06:51.000Z,101355
2019-02-21T12:07:51.000Z,101356
2019-02-21T12:08:51.000Z,101347
2019-02-21T12:10:51.000Z,101348
2019-02-21T12:11:51.000Z,101353
2019-02-21T12:13:51.000Z,101341
2019-02-21T12:15:51.000Z,101342
2019-02-21T12:17:51.000Z,101335
2019-02-21T12:18:51.000Z,101335
2019-02-21T12:20:51.000Z,101335
2019-02-21T12:21:51.000Z,101334
2019-02-21T12:23:35.000Z,101326
2019-02-21T12:24:51.000Z,101328
2019-02-21T12:25:51.000Z,101328
2019-02-21T12:27:35.000Z,101322
2019-02-21T12:28:51.000Z,101319
2019-02-21T12:30:51.000Z,101317
2019-02-21T12:32:51.000Z,101319
2019-02-21T12:33:51.000Z,101316
2019-02-21T12:35:21.000Z,101316
2019-02-21T12:36:51.000Z,101321
2019-02-21T12:37:51.000Z,101327
2019-02-21T12:39:35.000Z,101321
2019-02-21T12:40:50.000Z,101323
2019-02-21T12:42:50.000Z,101323
2019-02-21T12:44:50.000Z,101312
2019-02-21T12:46:50.000Z,101314
2019-02-21T12:47:50.000Z,101313
2019-02-21T12:49:36.000Z,101317
2019-02-21T12:50:36.000Z,101318
2019-02-21T12:52:50.000Z,101319
2019-02-21T12:53:50.000Z,101324
2019-02-21T12:55:21.000Z,101324
2019-02-21T12:56:50.000Z,101327
2019-02-21T12:57:50.000Z,101318
2019-02-21T12:59:50.000Z,101320
2019-02-21T13:01:50.000Z,101314
2019-02-21T13:03:50.000Z,101318
2019-02-21T13:05:36.000Z,101316
2019-02-21T13:07:50.000Z,101319
2019-02-21T13:08:50.000Z,101329
2019-02-21T13:10:50.000Z,101329
2019-02-21T13:12:50.000Z,101332
2019-02-21T13:14:50.000Z,101338
2019-02-21T13:15:50.000Z,101340
2019-02-21T13:17:51.000Z,101336
2019-02-21T13:18:51.000Z,101341
2019-02-21T13:20:35.000Z,101337
2019-02-21T13:21:50.000Z,101346
2019-02-21T13:23:35.000Z,101343
2019-02-21T13:24:50.000Z,101342
2019-02-21T13:25:51.000Z,101343
2019-02-21T13:27:50.000Z,101348
2019-02-21T13:29:35.000Z,101352
2019-02-21T13:30:50.000Z,101346
2019-02-21T13:31:50.000Z,101344
2019-02-21T13:33:50.000Z,101339
2019-02-21T13:35:50.000Z,101348
2019-02-21T13:37:28.000Z,101338
2019-02-21T13:38:51.000Z,101350
2019-02-21T13:40:36.000Z,101344
2019-02-21T13:41:50.000Z,101352
2019-02-21T13:42:50.000Z,101348
2019-02-21T13:43:50.000Z,101348
2019-02-21T13:45:50.000Z,101345
2019-02-21T13:47:35.000Z,101350
2019-02-21T13:49:35.000Z,101349
2019-02-21T13:51:50.000Z,101340
2019-02-21T13:52:50.000Z,101346
2019-02-21T13:53:50.000Z,101345
2019-02-21T13:55:50.000Z,101341
2019-02-21T13:57:50.000Z,101353
2019-02-21T13:58:50.000Z,101349
2019-02-21T14:00:50.000Z,101346
2019-02-21T14:01:50.000Z,101352
2019-02-21T14:03:50.000Z,101343
2019-02-21T14:05:50.000Z,101340
2019-02-21T14:07:35.000Z,101343
2019-02-21T14:09:20.000Z,101339
2019-02-21T14:10:50.000Z,101342
2019-02-21T14:11:50.000Z,101350
2019-02-21T14:13:50.000Z,101338
2019-02-21T14:14:50.000Z,101338
2019-02-21T14:16:35.000Z,101342
2019-02-21T14:18:50.000Z,101335
2019-02-21T14:20:35.000Z,101343
2019-02-21T14:22:50.000Z,101346
2019-02-21T14:24:35.000Z,101345
2019-02-21T14:26:50.000Z,101344
2019-02-21T14:28:35.000Z,101352
2019-02-21T14:30:50.000Z,101363
2019-02-21T14:32:50.000Z,101356
2019-02-21T14:33:50.000Z,101359
2019-02-21T14:35:50.000Z,101356
2019-02-21T14:36:50.000Z,101355
2019-02-21T14:38:20.000Z,101348
2019-02-21T14:39:50.000Z,101359
2019-02-21T14:40:50.000Z,101363
2019-02-21T14:42:50.000Z,101362
2019-02-21T14:44:50.000Z,101360
2019-02-21T14:46:50.000Z,101363
2019-02-21T14:48:50.000Z,101362
2019-02-21T14:50:50.000Z,101353
2019-02-21T14:52:50.000Z,101355
2019-02-21T14:54:35.000Z,101360
2019-02-21T14:56:50.000Z,101365
2019-02-21T14:58:50.000Z,101371
2019-02-21T15:00:35.000Z,101374
2019-02-21T15:01:50.000Z,101377
2019-02-21T15:03:20.000Z,101369
2019-02-21T15:04:35.000Z,101376
2019-02-21T15:05:50.000Z,101378
2019-02-21T15:07:50.000Z,101376
2019-02-21T15:09:50.000Z,101376
2019-02-21T15:11:50.000Z,101376
2019-02-21T15:13:50.000Z,101376
2019-02-21T15:14:50.000Z,101381
2019-02-21T15:16:50.000Z,101371
2019-02-21T15:17:50.000Z,101369
2019-02-21T15:19:50.000Z,101370
2019-02-21T15:21:35.000Z,101374
2019-02-21T15:22:50.000Z,101373
2019-02-21T15:24:50.000Z,101372
2019-02-21T15:26:50.000Z,101365
2019-02-21T15:28:50.000Z,101363
2019-02-21T15:30:35.000Z,101370
2019-02-21T15:31:50.000Z,101369
2019-02-21T15:33:50.000Z,101366
2019-02-21T15:35:35.000Z,101382
2019-02-21T15:37:50.000Z,101377
2019-02-21T15:38:50.000Z,101382
2019-02-21T15:40:50.000Z,101391
2019-02-21T15:42:50.000Z,101389
2019-02-21T15:44:50.000Z,101402
2019-02-21T15:46:50.000Z,101407
2019-02-21T15:47:50.000Z,101400
2019-02-21T15:49:35.000Z,101403
2019-02-21T15:50:51.000Z,101403
2019-02-21T15:52:21.000Z,101399
2019-02-21T15:53:51.000Z,101405
2019-02-21T15:54:51.000Z,101406
2019-02-21T15:55:51.000Z,101407
2019-02-21T15:57:51.000Z,101403
2019-02-21T15:59:51.000Z,101407
2019-02-21T16:00:51.000Z,101408
2019-02-21T16:02:35.000Z,101410
2019-02-21T16:03:51.000Z,101411
2019-02-21T16:04:51.000Z,101416
2019-02-21T16:08:51.000Z,101405
2019-02-21T16:09:51.000Z,101410
2019-02-21T16:11:35.000Z,101416
2019-02-21T16:13:20.000Z,101402
2019-02-21T16:14:36.000Z,101410
2019-02-21T16:16:51.000Z,101408
2019-02-21T16:18:35.000Z,101414
2019-02-21T16:19:51.000Z,101414
2019-02-21T16:21:35.000Z,101410
2019-02-21T16:22:51.000Z,101410
2019-02-21T16:24:35.000Z,101418
2019-02-21T16:25:51.000Z,101423
2019-02-21T16:26:51.000Z,101417
2019-02-21T16:27:51.000Z,101412
2019-02-21T16:29:51.000Z,101424
2019-02-21T16:31:51.000Z,101426
2019-02-21T16:32:51.000Z,101420
2019-02-21T16:33:51.000Z,101425
2019-02-21T16:35:51.000Z,101424
2019-02-21T16:37:51.000Z,101422
2019-02-21T16:39:21.000Z,101416
2019-02-21T16:40:51.000Z,101423
2019-02-21T16:42:35.000Z,101418
2019-02-21T16:43:51.000Z,101411
2019-02-21T16:45:36.000Z,101420
2019-02-21T16:47:35.000Z,101422
2019-02-21T16:48:51.000Z,101421
2019-02-21T16:49:51.000Z,101425
2019-02-21T16:51:37.000Z,101425
2019-02-21T16:53:51.000Z,101425
2019-02-21T16:55:51.000Z,101431
2019-02-21T16:57:51.000Z,101423
2019-02-21T16:59:51.000Z,101426
2019-02-21T17:01:51.000Z,101424
2019-02-21T17:03:51.000Z,101426
2019-02-21T17:04:51.000Z,101425
2019-02-21T17:05:51.000Z,101429
2019-02-21T17:06:51.000Z,101430
2019-02-21T17:08:51.000Z,101431
2019-02-21T17:10:51.000Z,101436
2019-02-21T17:11:51.000Z,101440
2019-02-21T17:13:36.000Z,101446
2019-02-21T17:15:51.000Z,101446
2019-02-21T17:17:51.000Z,101449
2019-02-21T17:19:51.000Z,101452
2019-02-21T17:21:51.000Z,101453
2019-02-21T17:23:21.000Z,101450
2019-02-21T17:24:51.000Z,101448
2019-02-21T17:26:51.000Z,101455
2019-02-21T17:28:51.000Z,101461
2019-02-21T17:30:51.000Z,101463
2019-02-21T17:32:51.000Z,101466
2019-02-21T17:33:51.000Z,101466
2019-02-21T17:35:51.000Z,101462
2019-02-21T17:37:21.000Z,101468
2019-02-21T17:38:51.000Z,101462
2019-02-21T17:39:51.000Z,101464
2019-02-21T17:41:51.000Z,101468
2019-02-21T17:42:51.000Z,101469
2019-02-21T17:44:51.000Z,101469
2019-02-21T17:45:51.000Z,101473
2019-02-21T17:47:51.000Z,101477
2019-02-21T17:49:51.000Z,101480
2019-02-21T17:51:51.000Z,101487
2019-02-21T17:53:51.000Z,101491
2019-02-21T17:54:51.000Z,101490
2019-02-21T17:55:51.000Z,101486
2019-02-21T17:57:36.000Z,101489
2019-02-21T17:59:51.000Z,101491
2019-02-21T18:00:51.000Z,101495
2019-02-21T18:02:51.000Z,101497
2019-02-21T18:04:51.000Z,101492
2019-02-21T18:06:51.000Z,101494
2019-02-21T18:08:36.000Z,101493
2019-02-21T18:09:51.000Z,101498
2019-02-21T18:11:36.000Z,101495
2019-02-21T18:12:51.000Z,101500
2019-02-21T18:14:51.000Z,101495
2019-02-21T18:15:51.000Z,101496
2019-02-21T18:17:36.000Z,101497
2019-02-21T18:18:51.000Z,101503
2019-02-21T18:20:51.000Z,101497
2019-02-21T18:21:51.000Z,101502
2019-02-21T18:23:36.000Z,101501
2019-02-21T18:24:51.000Z,101503
2019-02-21T18:26:51.000Z,101498
2019-02-21T18:28:36.000Z,101509
2019-02-21T18:30:51.000Z,101503
2019-02-21T18:32:51.000Z,101503
2019-02-21T18:34:51.000Z,101503
2019-02-21T18:36:51.000Z,101506
2019-02-21T18:38:51.000Z,101505
2019-02-21T18:40:36.000Z,101501
2019-02-21T18:42:51.000Z,101517
2019-02-21T18:44:51.000Z,101515
2019-02-21T18:46:20.000Z,101522
2019-02-21T18:47:51.000Z,101518
2019-02-21T18:49:51.000Z,101523
2019-02-21T18:51:51.000Z,101534
2019-02-21T18:52:51.000Z,101531
2019-02-21T18:53:51.000Z,101527
2019-02-21T18:55:51.000Z,101534
2019-02-21T18:57:51.000Z,101534
2019-02-21T18:59:20.000Z,101540
2019-02-21T19:00:51.000Z,101539
2019-02-21T19:01:51.000Z,101535
2019-02-21T19:02:50.000Z,101543
2019-02-21T19:04:50.000Z,101540
2019-02-21T19:06:50.000Z,101542
2019-02-21T19:08:50.000Z,101542
2019-02-21T19:10:50.000Z,101549
2019-02-21T19:12:35.000Z,101545
2019-02-21T19:13:50.000Z,101546
2019-02-21T19:15:50.000Z,101549
2019-02-21T19:17:50.000Z,101547
2019-02-21T19:19:50.000Z,101544
2019-02-21T19:21:50.000Z,101541
2019-02-21T19:23:35.000Z,101546
2019-02-21T19:24:35.000Z,101547
2019-02-21T19:26:50.000Z,101554
2019-02-21T19:28:35.000Z,101555
2019-02-21T19:29:50.000Z,101555
2019-02-21T19:31:50.000Z,101553
2019-02-21T19:33:50.000Z,101557
2019-02-21T19:35:50.000Z,101560
2019-02-21T19:36:50.000Z,101561
2019-02-21T19:38:50.000Z,101557
2019-02-21T19:39:50.000Z,101557
2019-02-21T19:41:50.000Z,101562
2019-02-21T19:42:50.000Z,101567
2019-02-21T19:44:50.000Z,101569
2019-02-21T19:45:50.000Z,101571
2019-02-21T19:47:50.000Z,101573
2019-02-21T19:49:50.000Z,101574
2019-02-21T19:51:50.000Z,101566
2019-02-21T19:52:50.000Z,101574
2019-02-21T19:54:50.000Z,101575
2019-02-21T19:55:50.000Z,101573
2019-02-21T19:57:50.000Z,101577
2019-02-21T19:59:35.000Z,101573
2019-02-21T20:00:50.000Z,101589
2019-02-21T20:02:50.000Z,101586
2019-02-21T20:03:50.000Z,101586
2019-02-21T20:05:50.000Z,101592
2019-02-21T20:07:51.000Z,101596
2019-02-21T20:09:36.000Z,101592
2019-02-21T20:10:51.000Z,101593
2019-02-21T20:12:51.000Z,101600
2019-02-21T20:14:51.000Z,101600
2019-02-21T20:16:51.000Z,101605
2019-02-21T20:17:51.000Z,101596
2019-02-21T20:19:51.000Z,101608
2019-02-21T20:21:51.000Z,101608
2019-02-21T20:23:51.000Z,101617
2019-02-21T20:25:51.000Z,101617
2019-02-21T20:27:51.000Z,101623
2019-02-21T20:29:51.000Z,101626